KBED

Laurence G Hanscom Field Airport

Bedford, Massachusetts, USA
METAR KBED 152156Z 28004KT 10SM CLR 29/20 A2983 RMK AO2 SLP110 T02940200
Observed Flight Rules
Aug-15 @ 21:56 UTC (31 minutes ago) Visual Flight Rules
Wind Visibility Clouds
280° at 4 knots 10 miles
  • Clear skies
Temperatures Readings
Current 29°C / 84°F
Dewpoint 20°C / 68°F
Humidity 58%
Altimeter 29.83" Hg
Pressure 1011 hPa
Elevation 50
METAR KBED 152156Z 28004KT 10SM CLR 29/20 A2983 RMK AO2 SLP110 T02940200
Observed Flight Rules
Aug-15 @ 21:56 UTC
(31 minutes ago)
VFR
Wind Visibility
280° at 4 knots 10 miles
Clouds
  • Clear skies
Temperature Dewpoint
29°C / 84°F 20°C / 68°F
Humidity Altimeter Pressure
58% 29.83" Hg 1011 hPa